Time;durP1;ratioP1;P1;durP2;ratioP2;P2;SDS_P1;SDS_P2;PMS_P1;PMS_P2;Temp;Humidity;BMP_temperature;BMP_pressure;BME280_temperature;BME280_humidity;BME280_pressure;Samples;Min_cycle;Max_cycle;Signal;HPM_P1;HPM_P2
2022/05/11 00:01:52;;;;;;;10.37;9.57;;;18.50;99.90;;;;;;10480313;28;20597;-83
2022/05/11 00:06:55;;;;;;;16.53;9.47;;;18.50;99.90;;;;;;10501243;28;20200;-85
2022/05/11 00:11:57;;;;;;;9.33;8.63;;;18.40;99.90;;;;;;10479477;28;20274;-84
2022/05/11 00:16:59;;;;;;;9.37;8.43;;;18.40;99.90;;;;;;10477709;28;20235;-84
2022/05/11 00:22:03;;;;;;;9.10;8.40;;;18.40;99.90;;;;;;10496150;28;20251;-84
2022/05/11 00:27:06;;;;;;;8.77;7.80;;;18.40;99.90;;;;;;10487395;28;20192;-86
2022/05/11 00:32:09;;;;;;;9.73;8.93;;;18.40;99.90;;;;;;10477024;28;20266;-85
2022/05/11 00:37:12;;;;;;;8.00;7.40;;;18.30;99.90;;;;;;10471126;28;20211;-84
2022/05/11 00:42:15;;;;;;;8.97;8.27;;;18.30;99.90;;;;;;10494360;28;20217;-84
2022/05/11 00:47:22;;;;;;;8.87;8.07;;;18.30;99.90;;;;;;10496650;28;20200;-85
2022/05/11 00:52:41;;;;;;;9.30;8.60;;;18.30;99.90;;;;;;10491182;28;20248;-85
2022/05/11 00:57:48;;;;;;;7.50;7.00;;;18.30;99.90;;;;;;10477558;28;20673;-85
2022/05/11 01:02:54;;;;;;;8.23;7.63;;;18.20;99.90;;;;;;10488513;28;20228;-84
2022/05/11 01:08:00;;;;;;;7.53;6.80;;;18.20;99.90;;;;;;10472311;28;20276;-85
2022/05/11 01:13:05;;;;;;;8.37;7.67;;;18.10;99.90;;;;;;10471176;28;20220;-85
2022/05/11 01:18:09;;;;;;;8.83;6.70;;;18.10;99.90;;;;;;10486335;28;20196;-84
2022/05/11 01:23:18;;;;;;;7.20;6.60;;;18.10;99.90;;;;;;10481459;28;20222;-85
2022/05/11 01:28:22;;;;;;;7.40;6.90;;;18.20;99.90;;;;;;10466055;28;20208;-84
2022/05/11 01:33:24;;;;;;;7.90;7.33;;;18.20;99.90;;;;;;10481661;28;20641;-84
2022/05/11 01:38:40;;;;;;;6.43;5.97;;;18.20;99.90;;;;;;10471263;28;20200;-85
2022/05/11 01:43:43;;;;;;;7.10;6.40;;;18.20;99.90;;;;;;10486008;28;20232;-84
2022/05/11 01:48:46;;;;;;;7.47;6.83;;;18.20;99.90;;;;;;10496846;28;20200;-84
2022/05/11 01:53:49;;;;;;;8.93;6.50;;;18.20;99.90;;;;;;10492290;28;20642;-84
2022/05/11 01:58:53;;;;;;;6.50;6.07;;;18.10;99.90;;;;;;10469045;28;20201;-84
2022/05/11 02:03:56;;;;;;;6.77;6.33;;;18.10;99.90;;;;;;10472800;28;20197;-84
2022/05/11 02:08:58;;;;;;;6.90;6.40;;;18.10;99.90;;;;;;10506316;28;20188;-85
2022/05/11 02:14:02;;;;;;;7.13;6.63;;;18.10;99.90;;;;;;10475090;28;20224;-85
2022/05/11 02:19:04;;;;;;;7.33;6.83;;;18.00;99.90;;;;;;10469971;28;20552;-84
2022/05/11 02:24:07;;;;;;;7.50;7.00;;;18.00;99.90;;;;;;10489768;28;20192;-86
2022/05/11 02:29:11;;;;;;;7.73;7.23;;;18.00;99.90;;;;;;10469275;28;20692;-87
2022/05/11 02:35:12;;;;;;;7.33;6.73;;;18.00;99.90;;;;;;10474099;28;20248;-87
2022/05/11 02:39:36;;;;;;;8.40;7.80;;;18.00;99.90;;;;;;10467531;28;20243;-86
2022/05/11 02:44:40;;;;;;;8.13;7.53;;;18.00;99.90;;;;;;10488345;28;20220;-87
2022/05/11 02:49:42;;;;;;;7.53;6.90;;;18.00;99.90;;;;;;10483947;28;20290;-86
2022/05/11 02:54:46;;;;;;;8.30;7.70;;;18.00;99.90;;;;;;10491595;28;20225;-87
2022/05/11 02:59:50;;;;;;;8.63;8.03;;;18.00;99.90;;;;;;10464605;28;20573;-88
2022/05/11 03:04:52;;;;;;;7.43;6.93;;;18.10;99.90;;;;;;10499992;28;20201;-87
2022/05/11 03:09:55;;;;;;;7.60;6.93;;;18.10;99.90;;;;;;10474285;28;20216;-87
2022/05/11 03:14:59;;;;;;;8.23;7.63;;;18.10;99.90;;;;;;10466770;28;20274;-87
2022/05/11 03:20:01;;;;;;;7.70;7.20;;;18.10;99.90;;;;;;10468290;28;20212;-87
2022/05/11 03:25:04;;;;;;;8.23;7.73;;;18.10;99.90;;;;;;10494542;28;20194;-87
2022/05/11 03:30:09;;;;;;;7.90;7.40;;;18.10;99.90;;;;;;10464406;28;20665;-86
2022/05/11 03:35:11;;;;;;;7.50;7.00;;;18.20;99.90;;;;;;10469318;28;20700;-87
2022/05/11 03:40:14;;;;;;;7.73;7.23;;;18.20;99.90;;;;;;10463596;28;20224;-86
2022/05/11 03:45:20;;;;;;;8.20;7.50;;;18.30;99.90;;;;;;10474493;28;20232;-87
2022/05/11 03:50:25;;;;;;;7.97;7.27;;;18.30;99.90;;;;;;10443522;28;20293;-87
2022/05/11 03:55:28;;;;;;;7.40;6.90;;;18.40;99.90;;;;;;10480522;28;20222;-87
2022/05/11 04:00:32;;;;;;;7.90;7.40;;;18.40;99.90;;;;;;10465402;28;20254;-87
2022/05/11 04:05:34;;;;;;;8.10;7.53;;;18.40;99.90;;;;;;10482211;28;20280;-87
2022/05/11 04:10:37;;;;;;;7.77;7.10;;;18.40;99.90;;;;;;10467284;28;20205;-86
2022/05/11 04:15:40;;;;;;;7.57;7.07;;;18.40;99.90;;;;;;10494261;28;20209;-87
2022/05/11 04:20:42;;;;;;;7.60;7.00;;;18.30;99.90;;;;;;10482721;28;20643;-87
2022/05/11 04:25:44;;;;;;;7.53;7.03;;;18.30;99.90;;;;;;10466617;28;20197;-87
2022/05/11 04:30:48;;;;;;;6.90;6.40;;;18.30;99.90;;;;;;10474468;28;20303;-86
2022/05/11 04:35:50;;;;;;;7.77;7.17;;;18.40;99.90;;;;;;10471558;28;20240;-86
2022/05/11 04:40:52;;;;;;;6.23;5.73;;;18.40;99.90;;;;;;10467212;28;20594;-87
2022/05/11 04:45:57;;;;;;;6.80;6.30;;;18.40;99.90;;;;;;10443904;28;20197;-88
2022/05/11 04:51:01;;;;;;;6.73;6.23;;;18.50;99.90;;;;;;10468710;28;20257;-87
2022/05/11 04:56:04;;;;;;;7.03;6.53;;;18.50;99.90;;;;;;10437421;28;20236;-87
2022/05/11 05:01:07;;;;;;;9.90;7.00;;;18.50;99.90;;;;;;10440782;28;20274;-87
2022/05/11 05:06:09;;;;;;;7.50;6.50;;;18.50;99.90;;;;;;10458647;28;20665;-88
2022/05/11 05:11:12;;;;;;;6.73;6.13;;;18.50;99.90;;;;;;10494349;28;20691;-88
2022/05/11 05:16:16;;;;;;;6.77;6.27;;;18.50;99.90;;;;;;10491229;28;20258;-85
2022/05/11 05:21:18;;;;;;;6.17;5.67;;;18.50;99.90;;;;;;10496385;28;20228;-86
2022/05/11 05:26:20;;;;;;;8.00;6.80;;;18.50;99.90;;;;;;10492311;28;20209;-85
2022/05/11 05:31:30;;;;;;;7.30;6.80;;;18.50;99.90;;;;;;10468893;28;20225;-84
2022/05/11 05:36:35;;;;;;;7.00;6.00;;;18.50;99.90;;;;;;10491579;28;20229;-87
2022/05/11 05:41:38;;;;;;;6.90;6.40;;;18.60;99.90;;;;;;10452197;28;20220;-83
2022/05/11 05:46:41;;;;;;;7.13;6.53;;;18.60;99.90;;;;;;10495950;28;20197;-83
2022/05/11 05:51:44;;;;;;;7.73;6.90;;;18.60;99.90;;;;;;10471289;28;20228;-83
2022/05/11 05:56:46;;;;;;;7.70;7.00;;;18.60;99.90;;;;;;10474291;28;20204;-83
2022/05/11 06:01:49;;;;;;;7.87;6.90;;;18.60;99.90;;;;;;10472264;28;20224;-83
2022/05/11 06:06:51;;;;;;;8.43;6.90;;;18.70;99.90;;;;;;10486781;28;20239;-83
2022/05/11 06:11:53;;;;;;;8.53;7.20;;;18.70;99.90;;;;;;10478517;28;20252;-84
2022/05/11 06:16:59;;;;;;;9.90;7.63;;;18.80;99.90;;;;;;10468984;28;20571;-84
2022/05/11 06:22:01;;;;;;;7.70;7.00;;;18.90;99.90;;;;;;10506230;28;20268;-84
2022/05/11 06:27:03;;;;;;;11.37;7.90;;;18.90;99.90;;;;;;10489613;28;20209;-84
2022/05/11 06:32:08;;;;;;;6.97;6.47;;;19.10;99.90;;;;;;10462169;28;20669;-85
2022/05/11 06:37:10;;;;;;;8.13;7.33;;;19.20;99.90;;;;;;10473651;28;20200;-85
2022/05/11 06:42:14;;;;;;;7.03;6.53;;;19.40;99.90;;;;;;10490821;28;20247;-85
2022/05/11 06:47:18;;;;;;;8.03;7.37;;;19.50;99.90;;;;;;10469615;28;20250;-85
2022/05/11 06:52:20;;;;;;;7.50;6.87;;;19.70;99.90;;;;;;10493765;28;20239;-86
2022/05/11 07:02:43;;;;;;;8.40;7.53;;;20.00;98.80;;;;;;10475913;28;20239;-86
2022/05/11 07:07:45;;;;;;;7.17;6.67;;;20.10;98.70;;;;;;10475050;28;20594;-85
2022/05/11 07:12:47;;;;;;;7.50;7.00;;;20.30;98.90;;;;;;10480421;28;20220;-85
2022/05/11 07:17:52;;;;;;;8.00;6.90;;;20.50;97.60;;;;;;10487031;28;20201;-85
2022/05/11 07:22:55;;;;;;;14.33;6.53;;;20.70;97.90;;;;;;10488120;28;20601;-85
2022/05/11 07:27:59;;;;;;;7.83;7.23;;;20.90;96.70;;;;;;10485344;28;20185;-86
2022/05/11 07:33:03;;;;;;;6.37;5.87;;;21.20;95.80;;;;;;10443287;28;20229;-86
2022/05/11 07:38:08;;;;;;;5.43;5.13;;;21.40;96.60;;;;;;10447073;28;20619;-86
2022/05/11 07:43:11;;;;;;;6.30;5.70;;;21.70;95.10;;;;;;10481486;28;20221;-87
2022/05/11 07:48:14;;;;;;;5.40;5.10;;;21.90;95.50;;;;;;10476034;28;20204;-84
2022/05/11 07:53:17;;;;;;;5.00;4.70;;;22.20;95.80;;;;;;10442896;28;20228;-87
2022/05/11 08:03:40;;;;;;;5.53;5.13;;;22.60;94.50;;;;;;10442812;28;20255;-85
2022/05/11 08:08:42;;;;;;;5.40;5.00;;;22.90;94.30;;;;;;10476091;28;20193;-84
2022/05/11 08:13:44;;;;;;;4.93;4.63;;;23.10;92.70;;;;;;10468166;28;20215;-87
2022/05/11 08:18:48;;;;;;;4.60;4.23;;;23.40;91.80;;;;;;10467522;28;20243;-86
2022/05/11 08:23:50;;;;;;;5.40;4.90;;;23.70;92.30;;;;;;10481157;28;20208;-85
2022/05/11 08:28:52;;;;;;;5.63;5.23;;;24.00;91.50;;;;;;10469197;28;20547;-85
2022/05/11 08:33:56;;;;;;;6.00;5.27;;;24.30;91.90;;;;;;10470980;28;20278;-85
2022/05/11 08:39:00;;;;;;;4.60;4.20;;;24.70;90.60;;;;;;10474925;28;20207;-85
2022/05/11 08:44:08;;;;;;;4.40;4.00;;;25.10;90.40;;;;;;10460781;28;20224;-86
2022/05/11 08:49:21;;;;;;;5.43;4.93;;;25.60;87.80;;;;;;10485331;28;20224;-86
2022/05/11 08:54:32;;;;;;;5.20;4.80;;;26.20;88.20;;;;;;10441153;28;20213;-87
2022/05/11 08:59:35;;;;;;;4.80;4.50;;;26.80;84.70;;;;;;10451300;28;20231;-86
2022/05/11 09:04:44;;;;;;;5.00;4.70;;;27.30;84.90;;;;;;10463744;28;20221;-83
2022/05/11 09:09:47;;;;;;;5.73;5.20;;;27.60;82.90;;;;;;10481026;28;20217;-84
2022/05/11 09:14:53;;;;;;;5.50;5.00;;;27.80;79.20;;;;;;10445795;28;20203;-86
2022/05/11 09:20:07;;;;;;;6.60;4.53;;;27.90;82.00;;;;;;10458254;28;20221;-84
2022/05/11 09:25:20;;;;;;;5.57;4.97;;;28.10;81.70;;;;;;10461134;28;20316;-84
2022/05/11 09:30:25;;;;;;;6.03;5.63;;;28.30;80.50;;;;;;10459108;28;20225;-84
2022/05/11 09:35:35;;;;;;;5.00;4.70;;;28.60;78.00;;;;;;10439842;28;20251;-84
2022/05/11 09:40:54;;;;;;;5.80;5.37;;;28.70;77.70;;;;;;10436724;28;20229;-83
2022/05/11 09:45:56;;;;;;;5.00;4.60;;;29.00;78.60;;;;;;10476771;28;20317;-84
2022/05/11 09:51:20;;;;;;;5.80;5.03;;;29.30;78.40;;;;;;10449665;28;20228;-84
2022/05/11 09:56:27;;;;;;;9.23;5.70;;;29.50;77.20;;;;;;10473671;28;20197;-84
2022/05/11 10:01:30;;;;;;;5.37;5.03;;;29.90;76.90;;;;;;10468301;28;20563;-86
2022/05/11 10:06:41;;;;;;;4.63;4.33;;;30.30;74.70;;;;;;10453971;28;20224;-85
2022/05/11 10:11:48;;;;;;;5.10;4.70;;;30.90;74.90;;;;;;10456187;28;20767;-85
2022/05/11 10:22:23;;;;;;;7.80;5.30;;;30.80;72.40;;;;;;10452635;28;20243;-86
2022/05/11 10:27:36;;;;;;;5.47;5.00;;;29.90;70.00;;;;;;10460962;28;20667;-85
2022/05/11 10:33:04;;;;;;;5.17;4.87;;;29.10;73.00;;;;;;10465988;28;20248;-85
2022/05/11 10:38:50;;;;;;;5.00;4.70;;;28.50;73.10;;;;;;10482201;28;20200;-85
2022/05/11 10:44:01;;;;;;;5.03;4.73;;;28.00;73.10;;;;;;10471394;28;20691;-85
2022/05/11 10:49:27;;;;;;;5.00;4.70;;;27.60;76.10;;;;;;10482965;28;20224;-86
2022/05/11 10:54:40;;;;;;;4.83;4.43;;;27.40;73.30;;;;;;10471188;28;20788;-86
2022/05/11 10:59:58;;;;;;;4.60;4.30;;;27.20;75.60;;;;;;10458485;28;20221;-85
2022/05/11 11:05:10;;;;;;;5.23;4.10;;;26.90;74.80;;;;;;10442510;28;21022;-85
2022/05/11 11:10:23;;;;;;;4.73;4.33;;;26.60;76.10;;;;;;10472075;28;20224;-85
2022/05/11 11:15:27;;;;;;;4.10;3.90;;;26.40;76.50;;;;;;10440845;28;20212;-85
2022/05/11 11:20:33;;;;;;;5.10;4.80;;;26.10;78.60;;;;;;10449272;28;20246;-85
2022/05/11 11:25:52;;;;;;;4.97;4.53;;;26.00;74.10;;;;;;10467682;28;20342;-85
2022/05/11 11:31:15;;;;;;;5.03;4.73;;;25.90;75.00;;;;;;10454360;28;20215;-85
2022/05/11 11:36:31;;;;;;;5.07;4.67;;;25.90;75.80;;;;;;10475476;28;20200;-86
2022/05/11 11:42:04;;;;;;;5.47;5.07;;;25.90;76.80;;;;;;10454769;22;20231;-82
2022/05/11 11:47:37;;;;;;;4.90;4.60;;;25.90;80.00;;;;;;10440288;28;20221;-81
2022/05/11 11:52:41;;;;;;;5.50;5.00;;;25.90;74.30;;;;;;10456502;28;20223;-81
2022/05/11 11:57:48;;;;;;;6.33;5.20;;;25.80;75.30;;;;;;10482126;28;20237;-80
2022/05/11 12:02:50;;;;;;;5.00;4.70;;;25.70;75.80;;;;;;10494651;28;20216;-80
2022/05/11 12:19:07;;;;;;;4.57;4.20;;;25.50;76.30;;;;;;10482802;28;20193;-82
2022/05/11 12:24:22;;;;;;;5.13;4.63;;;25.30;70.90;;;;;;10500353;28;20234;-81
2022/05/11 12:34:47;;;;;;;4.40;4.00;;;25.40;74.00;;;;;;10468358;28;20200;-80
2022/05/11 12:39:56;;;;;;;4.57;4.17;;;25.30;69.60;;;;;;10484483;28;20296;-81
2022/05/11 12:44:59;;;;;;;7.50;4.37;;;25.20;66.90;;;;;;10466849;28;20239;-83
2022/05/11 12:50:02;;;;;;;3.23;3.03;;;25.20;68.50;;;;;;10489580;28;20232;-81
2022/05/11 12:55:05;;;;;;;4.07;3.87;;;25.20;66.30;;;;;;10488592;28;20198;-81
2022/05/11 13:00:17;;;;;;;4.00;3.70;;;25.20;70.00;;;;;;10491061;28;20342;-81
2022/05/11 13:05:20;;;;;;;4.50;3.80;;;25.10;74.30;;;;;;10487491;28;20217;-83
2022/05/11 13:10:30;;;;;;;3.73;3.53;;;25.10;68.50;;;;;;10469590;28;20251;-82
2022/05/11 13:15:40;;;;;;;5.27;3.93;;;25.20;61.60;;;;;;10500406;28;20224;-81
2022/05/11 13:20:53;;;;;;;3.60;3.40;;;25.40;63.30;;;;;;10493459;28;20293;-82
2022/05/11 13:25:58;;;;;;;3.73;3.53;;;25.50;62.70;;;;;;10499062;28;20220;-81
2022/05/11 13:31:03;;;;;;;3.53;3.20;;;25.60;63.00;;;;;;10486835;28;20720;-81
2022/05/11 13:36:24;;;;;;;6.10;3.93;;;25.60;65.90;;;;;;10489472;28;20197;-82
2022/05/11 13:41:31;;;;;;;4.40;3.80;;;25.60;65.10;;;;;;10489403;28;20232;-82
2022/05/11 13:52:36;;;;;;;3.70;3.50;;;25.50;62.10;;;;;;10486648;28;20745;-82
2022/05/11 13:57:41;;;;;;;6.20;3.67;;;25.50;62.30;;;;;;10502947;28;20197;-83
2022/05/11 14:02:58;;;;;;;3.63;3.40;;;25.60;61.50;;;;;;10477593;28;20216;-83
2022/05/11 14:08:00;;;;;;;4.50;3.13;;;25.60;66.90;;;;;;10472006;28;20767;-83
2022/05/11 14:13:02;;;;;;;3.17;3.00;;;25.60;66.80;;;;;;10470632;28;20483;-83
2022/05/11 14:18:10;;;;;;;4.43;3.97;;;25.50;65.00;;;;;;10447181;28;20205;-83
2022/05/11 14:23:13;;;;;;;4.03;3.63;;;25.60;60.00;;;;;;10470466;28;20220;-83
2022/05/11 14:28:15;;;;;;;4.20;3.80;;;25.70;61.40;;;;;;10478862;28;20235;-83
2022/05/11 14:33:19;;;;;;;3.70;3.50;;;25.80;60.80;;;;;;10460479;28;20708;-83
2022/05/11 14:38:22;;;;;;;7.90;3.80;;;25.90;60.60;;;;;;10468755;28;20193;-83
2022/05/11 14:43:24;;;;;;;3.20;3.00;;;25.90;61.20;;;;;;10439123;28;20229;-83
2022/05/11 14:48:30;;;;;;;3.37;3.17;;;25.80;63.90;;;;;;10463206;28;20203;-82
2022/05/11 14:53:33;;;;;;;3.97;3.40;;;25.70;62.40;;;;;;10500490;28;20208;-83
2022/05/11 15:03:57;;;;;;;4.13;3.83;;;25.70;59.30;;;;;;10483643;28;20216;-83
2022/05/11 15:08:59;;;;;;;3.10;2.90;;;25.70;62.00;;;;;;10502776;28;20219;-83
2022/05/11 15:14:02;;;;;;;3.77;3.57;;;25.70;64.60;;;;;;10483684;28;20212;-83
2022/05/11 15:19:05;;;;;;;3.80;3.47;;;25.80;64.20;;;;;;10491993;28;20213;-83
2022/05/11 15:24:08;;;;;;;3.73;3.43;;;25.80;67.40;;;;;;10490289;28;20216;-83
2022/05/11 15:29:10;;;;;;;5.77;4.37;;;25.70;67.20;;;;;;10510720;28;20254;-83
2022/05/11 15:34:16;;;;;;;3.33;3.13;;;25.60;66.50;;;;;;10496881;28;20288;-83
2022/05/11 15:39:19;;;;;;;3.77;3.50;;;25.60;68.50;;;;;;10475080;28;20205;-82
2022/05/11 15:44:21;;;;;;;4.30;4.00;;;25.60;66.70;;;;;;10478296;28;20224;-81
2022/05/11 15:49:24;;;;;;;2.80;2.70;;;25.50;66.60;;;;;;10500657;28;20205;-81
2022/05/11 15:54:27;;;;;;;3.90;3.57;;;25.40;70.70;;;;;;10501275;28;20220;-81
2022/05/11 15:59:30;;;;;;;4.53;3.50;;;25.30;73.40;;;;;;10491108;28;20204;-81
2022/05/11 16:04:38;;;;;;;3.30;3.10;;;25.10;72.10;;;;;;10502267;28;20208;-83
2022/05/11 16:09:40;;;;;;;3.23;3.03;;;25.00;66.70;;;;;;10509772;28;20211;-81
2022/05/11 16:14:43;;;;;;;3.40;3.20;;;25.00;66.30;;;;;;10490539;28;20197;-80
2022/05/11 16:19:52;;;;;;;2.93;2.80;;;25.00;63.50;;;;;;10462156;28;20206;-82
2022/05/11 16:24:55;;;;;;;3.23;3.03;;;25.00;64.70;;;;;;10491551;28;20216;-82
2022/05/11 16:29:58;;;;;;;7.23;3.20;;;25.00;66.90;;;;;;10488098;28;20217;-81
2022/05/11 16:35:02;;;;;;;6.07;5.57;;;25.00;62.20;;;;;;10486166;28;20197;-82
2022/05/11 16:40:06;;;;;;;5.23;4.63;;;25.00;64.50;;;;;;10499110;28;20247;-80
2022/05/11 16:45:11;;;;;;;5.77;5.20;;;25.00;64.80;;;;;;10491359;28;20216;-81
2022/05/11 16:50:14;;;;;;;4.60;4.23;;;25.00;62.40;;;;;;10498121;28;20220;-82
2022/05/11 16:55:18;;;;;;;4.67;3.43;;;25.00;61.70;;;;;;10494707;28;20628;-81
2022/05/11 17:00:21;;;;;;;5.30;4.90;;;25.10;59.00;;;;;;10471930;28;20227;-82
2022/05/11 17:05:24;;;;;;;4.30;3.90;;;25.10;62.50;;;;;;10486719;28;20659;-81
2022/05/11 17:10:27;;;;;;;4.73;4.43;;;25.00;62.00;;;;;;10459477;28;20233;-80
2022/05/11 17:15:29;;;;;;;3.93;3.50;;;25.00;64.00;;;;;;10491099;28;20196;-81
2022/05/11 17:20:38;;;;;;;3.30;3.00;;;24.90;60.00;;;;;;10510618;28;20227;-81
2022/05/11 17:25:40;;;;;;;3.50;3.30;;;24.90;57.10;;;;;;10508962;28;20660;-81
2022/05/11 17:30:42;;;;;;;3.60;3.40;;;24.90;60.20;;;;;;10501946;28;20305;-80
2022/05/11 17:35:47;;;;;;;3.53;3.30;;;24.80;62.00;;;;;;10504022;28;20252;-80
2022/05/11 17:40:49;;;;;;;4.03;3.83;;;24.80;64.30;;;;;;10488957;28;20775;-80
2022/05/11 17:45:52;;;;;;;3.80;3.50;;;24.60;62.20;;;;;;10498699;28;20315;-80
2022/05/11 17:50:59;;;;;;;4.43;4.17;;;24.50;60.10;;;;;;10501000;28;20301;-80
2022/05/11 17:56:02;;;;;;;3.47;3.37;;;24.40;65.90;;;;;;10501642;28;20192;-80
2022/05/11 18:01:05;;;;;;;3.63;3.43;;;24.30;65.40;;;;;;10496463;28;20212;-80
2022/05/11 18:06:08;;;;;;;4.03;3.20;;;24.20;60.40;;;;;;10472984;28;20217;-80
2022/05/11 18:11:10;;;;;;;3.93;3.73;;;24.20;63.10;;;;;;10500692;28;20277;-80
2022/05/11 18:16:13;;;;;;;3.70;3.50;;;24.00;69.00;;;;;;10465783;28;20220;-81
2022/05/11 18:21:28;;;;;;;3.77;3.57;;;23.90;64.80;;;;;;10493174;28;20334;-81
2022/05/11 18:26:30;;;;;;;3.60;3.40;;;23.90;69.30;;;;;;10478186;28;20270;-80
2022/05/11 18:31:32;;;;;;;4.57;4.27;;;23.70;67.00;;;;;;10473527;28;20701;-80
2022/05/11 18:36:36;;;;;;;4.10;3.90;;;23.60;66.00;;;;;;10491992;28;20283;-80
2022/05/11 18:41:39;;;;;;;4.73;4.33;;;23.60;66.00;;;;;;10496943;28;20228;-79
2022/05/11 18:46:41;;;;;;;4.80;4.50;;;23.50;63.90;;;;;;10496816;28;20687;-79
2022/05/11 18:51:44;;;;;;;4.13;3.83;;;23.50;63.10;;;;;;10490567;28;20251;-81
2022/05/11 18:56:46;;;;;;;3.60;3.40;;;23.40;63.00;;;;;;10482284;28;20219;-79
2022/05/11 19:01:49;;;;;;;4.53;3.10;;;23.40;63.50;;;;;;10474247;28;20229;-79
2022/05/11 19:06:52;;;;;;;3.47;3.27;;;23.30;63.50;;;;;;10482524;28;20216;-80
2022/05/11 19:11:54;;;;;;;3.70;3.50;;;23.20;64.00;;;;;;10487164;28;20281;-81
2022/05/11 19:16:57;;;;;;;4.00;3.80;;;23.10;64.50;;;;;;10506620;28;20208;-81
2022/05/11 19:22:00;;;;;;;4.17;3.97;;;23.00;65.00;;;;;;10501562;28;20284;-81
2022/05/11 19:27:03;;;;;;;4.00;3.70;;;22.90;65.00;;;;;;10490395;28;20602;-81
2022/05/11 19:32:06;;;;;;;5.33;3.87;;;22.70;64.50;;;;;;10487450;28;20312;-81
2022/05/11 19:37:09;;;;;;;3.50;3.20;;;22.60;65.50;;;;;;10491913;28;20197;-81
2022/05/11 19:42:12;;;;;;;4.40;4.00;;;22.60;66.00;;;;;;10508663;28;20232;-80
2022/05/11 19:47:14;;;;;;;2.53;2.43;;;22.50;64.90;;;;;;10500721;28;20284;-80
2022/05/11 19:52:17;;;;;;;3.33;3.13;;;22.30;65.80;;;;;;10481025;28;20220;-81
2022/05/11 19:57:19;;;;;;;2.93;2.83;;;22.20;64.90;;;;;;10501584;28;20232;-81
2022/05/11 20:02:21;;;;;;;4.80;3.10;;;22.20;65.00;;;;;;10501263;28;20224;-81
2022/05/11 20:07:26;;;;;;;4.63;2.73;;;22.10;64.90;;;;;;10488773;28;20637;-81
2022/05/11 20:12:28;;;;;;;2.93;2.50;;;22.00;64.00;;;;;;10492864;28;20255;-81
2022/05/11 20:17:30;;;;;;;2.60;2.40;;;22.00;65.50;;;;;;10511097;28;20671;-81
2022/05/11 20:22:36;;;;;;;3.07;2.87;;;21.90;64.00;;;;;;10505112;28;20225;-81
2022/05/11 20:27:39;;;;;;;2.70;2.50;;;21.90;65.60;;;;;;10500148;28;20306;-80
2022/05/11 20:38:02;;;;;;;6.70;3.00;;;21.80;66.50;;;;;;10467768;28;20676;-80
2022/05/11 20:43:05;;;;;;;2.50;2.30;;;21.70;66.30;;;;;;10486515;28;20220;-80
2022/05/11 20:48:10;;;;;;;4.67;3.03;;;21.60;66.40;;;;;;10495960;28;20220;-79
2022/05/11 20:53:14;;;;;;;2.60;2.40;;;21.60;67.80;;;;;;10502915;28;20223;-79
2022/05/11 20:58:16;;;;;;;3.40;3.20;;;21.50;66.90;;;;;;10487386;28;20730;-80
2022/05/11 21:03:19;;;;;;;3.30;3.10;;;21.50;69.80;;;;;;10498794;28;20224;-80
2022/05/11 21:08:23;;;;;;;3.07;2.87;;;21.50;69.80;;;;;;10504504;28;20580;-80
2022/05/11 21:13:25;;;;;;;2.30;2.20;;;21.50;68.70;;;;;;10488177;28;20220;-80
2022/05/11 21:18:28;;;;;;;3.43;3.20;;;21.40;69.30;;;;;;10505083;28;20204;-80
2022/05/11 21:23:31;;;;;;;3.50;2.77;;;21.40;71.30;;;;;;10504406;28;20300;-79
2022/05/11 21:28:33;;;;;;;3.03;2.83;;;21.40;71.50;;;;;;10486154;28;20671;-80
2022/05/11 21:33:36;;;;;;;2.90;2.70;;;21.40;70.30;;;;;;10491951;28;20569;-79
2022/05/11 21:38:40;;;;;;;2.67;2.50;;;21.40;73.90;;;;;;10484212;28;20193;-80
2022/05/11 21:43:42;;;;;;;2.43;2.23;;;21.40;71.80;;;;;;10497113;28;20225;-79
2022/05/11 21:48:44;;;;;;;2.90;2.70;;;21.40;73.20;;;;;;10497318;28;20216;-80
2022/05/11 21:53:48;;;;;;;3.50;2.73;;;21.40;70.30;;;;;;10487623;28;20229;-79
2022/05/11 21:58:50;;;;;;;2.90;2.60;;;21.50;71.60;;;;;;10503502;28;20552;-80
2022/05/11 22:03:52;;;;;;;2.43;2.33;;;21.50;65.80;;;;;;10497402;28;20793;-80
2022/05/11 22:08:57;;;;;;;3.10;2.80;;;21.50;62.30;;;;;;10502722;28;20226;-80
2022/05/11 22:13:59;;;;;;;2.70;2.60;;;21.60;64.50;;;;;;10504568;28;20636;-80
2022/05/11 22:19:02;;;;;;;2.67;2.53;;;21.60;65.30;;;;;;10503766;28;20193;-80
2022/05/11 22:24:16;;;;;;;5.70;2.87;;;21.60;69.30;;;;;;10503790;28;20298;-80
2022/05/11 22:29:27;;;;;;;3.83;3.30;;;21.60;62.20;;;;;;10468802;28;20216;-81
2022/05/11 22:34:30;;;;;;;3.60;3.30;;;21.60;61.80;;;;;;10490701;28;20232;-80
2022/05/11 22:39:34;;;;;;;5.13;3.40;;;21.70;60.70;;;;;;10502602;28;20248;-81
2022/05/11 22:44:36;;;;;;;3.13;2.83;;;21.60;61.20;;;;;;10497398;28;20284;-80
2022/05/11 22:49:38;;;;;;;3.13;2.93;;;21.70;61.80;;;;;;10493065;28;20232;-80
2022/05/11 22:54:41;;;;;;;3.30;3.00;;;21.70;60.40;;;;;;10483681;28;20204;-79
2022/05/11 22:59:43;;;;;;;3.20;3.00;;;21.70;61.00;;;;;;10482423;28;20683;-79
2022/05/11 23:04:45;;;;;;;3.10;2.90;;;21.70;60.70;;;;;;10494701;28;20201;-79
2022/05/11 23:09:49;;;;;;;3.83;2.90;;;21.70;59.40;;;;;;10482393;28;20203;-80
2022/05/11 23:14:51;;;;;;;2.60;2.40;;;21.70;59.70;;;;;;10482671;28;20224;-80
2022/05/11 23:19:53;;;;;;;2.73;2.53;;;21.70;59.80;;;;;;10500388;28;20306;-80
2022/05/11 23:24:57;;;;;;;3.30;3.10;;;21.70;62.60;;;;;;10484008;28;20218;-81
2022/05/11 23:29:59;;;;;;;3.93;2.63;;;21.70;62.80;;;;;;10502931;28;20208;-80
2022/05/11 23:35:06;;;;;;;3.20;3.00;;;21.70;69.40;;;;;;10479527;28;20228;-81
2022/05/11 23:40:12;;;;;;;3.13;2.93;;;21.70;73.80;;;;;;10481139;28;20323;-81
2022/05/11 23:45:15;;;;;;;3.40;3.17;;;21.60;69.40;;;;;;10480386;28;20216;-80
2022/05/11 23:50:19;;;;;;;3.57;3.37;;;21.50;66.80;;;;;;10478895;28;20221;-82
2022/05/11 23:55:23;;;;;;;3.20;2.90;;;21.50;69.40;;;;;;10496167;28;20200;-81
